EWG71LA LIBD-EDDS
Flight info
| Callsign | EWG71LA |
|---|---|
| Flight time | 1h 39m |
| Altitude | 18000 |
| Route | PISIP L612 RUPAX/N0442F360 DCT AGOMO DCT VESAL DCT BRENO M726 MAH/N0378F240 L173 DODIL T127 TEKSI TEKSI1W |
| Aircraft | A320/M-SDE3FGHIRWY/LB1 |
Departure
| Time | 2026-05-03 20:45 |
|---|---|
| Airport | Bari Karol Wojtyła International Airport (LIBD) |
Arrival
| Time | 2026-05-03 22:24 |
|---|---|
| Airport | Stuttgart Airport (EDDS) |
| Time | Latitude | Longitude | Altitude | Speed | Heading |
|---|---|---|---|---|---|
| 2026-05-03 20:18 | 41.13526 | 16.76345 | 137 ft | 0 kts | 159° |
| 2026-05-03 20:36 | 41.13540 | 16.76338 | 136 ft | 4 kts | 156° |
| 2026-05-03 20:36 | 41.13564 | 16.76322 | 136 ft | 4 kts | 145° |
| 2026-05-03 20:37 | 41.13582 | 16.76299 | 136 ft | 4 kts | 111° |
| 2026-05-03 20:37 | 41.13584 | 16.76279 | 136 ft | 0 kts | 69° |
| 2026-05-03 20:39 | 41.13604 | 16.76348 | 136 ft | 13 kts | 69° |
| 2026-05-03 20:39 | 41.13640 | 16.76477 | 136 ft | 14 kts | 70° |
| 2026-05-03 20:40 | 41.13713 | 16.76558 | 136 ft | 15 kts | 23° |
| 2026-05-03 20:40 | 41.13801 | 16.76552 | 134 ft | 13 kts | 30° |
| 2026-05-03 20:40 | 41.13841 | 16.76684 | 131 ft | 19 kts | 69° |
| 2026-05-03 20:40 | 41.13895 | 16.76874 | 124 ft | 23 kts | 70° |
| 2026-05-03 20:41 | 41.13948 | 16.77063 | 120 ft | 22 kts | 69° |
| 2026-05-03 20:41 | 41.13998 | 16.77238 | 123 ft | 20 kts | 69° |
| 2026-05-03 20:41 | 41.14047 | 16.77372 | 121 ft | 16 kts | 35° |
| 2026-05-03 20:41 | 41.14121 | 16.77411 | 116 ft | 2 kts | 16° |
| 2026-05-03 20:42 | 41.14123 | 16.77412 | 117 ft | 1 kts | 16° |
| 2026-05-03 20:42 | 41.14174 | 16.77421 | 115 ft | 11 kts | 349° |
| 2026-05-03 20:42 | 41.14218 | 16.77379 | 114 ft | 6 kts | 296° |
| 2026-05-03 20:42 | 41.14215 | 16.77344 | 115 ft | 0 kts | 249° |
| 2026-05-03 20:43 | 41.14209 | 16.77325 | 115 ft | 12 kts | 249° |
| 2026-05-03 20:44 | 41.14088 | 16.76893 | 126 ft | 86 kts | 249° |
| 2026-05-03 20:44 | 41.13803 | 16.75889 | 138 ft | 144 kts | 249° |
| 2026-05-03 20:44 | 41.13435 | 16.74534 | 441 ft | 164 kts | 250° |
| 2026-05-03 20:44 | 41.13039 | 16.72988 | 777 ft | 189 kts | 251° |
| 2026-05-03 20:45 | 41.12578 | 16.71228 | 1144 ft | 213 kts | 252° |
| 2026-05-03 20:45 | 41.12059 | 16.69341 | 1850 ft | 217 kts | 250° |
| 2026-05-03 20:45 | 41.11513 | 16.67483 | 2757 ft | 217 kts | 250° |
| 2026-05-03 20:45 | 41.10959 | 16.65621 | 3540 ft | 218 kts | 250° |
| 2026-05-03 20:46 | 41.10400 | 16.63732 | 4266 ft | 222 kts | 250° |
| 2026-05-03 20:46 | 41.09834 | 16.61806 | 4989 ft | 226 kts | 250° |
| 2026-05-03 20:46 | 41.09261 | 16.59840 | 5670 ft | 231 kts | 252° |
| 2026-05-03 20:46 | 41.09104 | 16.57747 | 6303 ft | 234 kts | 283° |
| 2026-05-03 20:47 | 41.09766 | 16.55699 | 6609 ft | 253 kts | 310° |
| 2026-05-03 20:47 | 41.11192 | 16.54250 | 7011 ft | 267 kts | 336° |
| 2026-05-03 20:47 | 41.12906 | 16.53215 | 7736 ft | 272 kts | 337° |
| 2026-05-03 20:47 | 41.14636 | 16.52169 | 8575 ft | 274 kts | 336° |
| 2026-05-03 20:48 | 41.16378 | 16.51112 | 9432 ft | 276 kts | 337° |
| 2026-05-03 20:48 | 41.18130 | 16.50046 | 10256 ft | 278 kts | 337° |
| 2026-05-03 20:48 | 41.19937 | 16.48942 | 10621 ft | 297 kts | 337° |
| 2026-05-03 20:48 | 41.21886 | 16.47754 | 10878 ft | 317 kts | 336° |
| 2026-05-03 20:49 | 41.23916 | 16.46516 | 11479 ft | 324 kts | 336° |
| 2026-05-03 20:49 | 41.25974 | 16.45263 | 12195 ft | 327 kts | 337° |
| 2026-05-03 20:49 | 41.28050 | 16.43997 | 12928 ft | 330 kts | 337° |
| 2026-05-03 20:49 | 41.30143 | 16.42720 | 13660 ft | 332 kts | 337° |
| 2026-05-03 20:50 | 41.32251 | 16.41430 | 14322 ft | 335 kts | 337° |
| 2026-05-03 20:50 | 41.34373 | 16.40128 | 14950 ft | 337 kts | 337° |
| 2026-05-03 20:50 | 41.36513 | 16.38816 | 15575 ft | 340 kts | 337° |
| 2026-05-03 20:50 | 41.38670 | 16.37494 | 16197 ft | 342 kts | 337° |
| 2026-05-03 20:51 | 41.40840 | 16.36162 | 16814 ft | 345 kts | 337° |
| 2026-05-03 20:51 | 41.43029 | 16.34815 | 17416 ft | 348 kts | 337° |
| 2026-05-03 20:51 | 41.45241 | 16.33457 | 17935 ft | 352 kts | 337° |
| 2026-05-03 20:51 | 41.47479 | 16.32081 | 18503 ft | 356 kts | 337° |
| 2026-05-03 20:52 | 41.49734 | 16.30689 | 19013 ft | 359 kts | 336° |
| 2026-05-03 20:52 | 41.52006 | 16.29284 | 19544 ft | 361 kts | 336° |
| 2026-05-03 20:52 | 41.54293 | 16.27873 | 20067 ft | 363 kts | 336° |
| 2026-05-03 20:52 | 41.56593 | 16.26457 | 20609 ft | 365 kts | 336° |
| 2026-05-03 20:53 | 41.58907 | 16.25029 | 21147 ft | 368 kts | 336° |
| 2026-05-03 20:53 | 41.61239 | 16.23588 | 21673 ft | 370 kts | 336° |
| 2026-05-03 20:53 | 41.63581 | 16.22136 | 22196 ft | 373 kts | 336° |
| 2026-05-03 20:53 | 41.65944 | 16.20673 | 22713 ft | 375 kts | 336° |
| 2026-05-03 20:54 | 41.68321 | 16.19203 | 23216 ft | 378 kts | 336° |
| 2026-05-03 20:54 | 41.73120 | 16.16233 | 24116 ft | 382 kts | 336° |
| 2026-05-03 20:54 | 41.75534 | 16.14732 | 24545 ft | 383 kts | 335° |
| 2026-05-03 20:55 | 41.77953 | 16.13226 | 24958 ft | 384 kts | 335° |
| 2026-05-03 20:55 | 41.80380 | 16.11713 | 25359 ft | 385 kts | 335° |
| 2026-05-03 20:55 | 41.82812 | 16.10196 | 25769 ft | 386 kts | 335° |
| 2026-05-03 20:55 | 41.85251 | 16.08675 | 26179 ft | 387 kts | 335° |
| 2026-05-03 20:56 | 41.87694 | 16.07151 | 26559 ft | 388 kts | 335° |
| 2026-05-03 20:56 | 41.90106 | 16.05504 | 26930 ft | 390 kts | 329° |
| 2026-05-03 20:56 | 41.92285 | 16.03323 | 27288 ft | 393 kts | 320° |
| 2026-05-03 20:56 | 41.94191 | 16.00658 | 27659 ft | 397 kts | 315° |
| 2026-05-03 20:57 | 41.96045 | 15.97910 | 27971 ft | 398 kts | 314° |
| 2026-05-03 20:57 | 41.97911 | 15.95142 | 28290 ft | 400 kts | 314° |
| 2026-05-03 20:57 | 41.99784 | 15.92361 | 28675 ft | 402 kts | 314° |
| 2026-05-03 20:57 | 42.01665 | 15.89574 | 29009 ft | 403 kts | 315° |
| 2026-05-03 20:58 | 42.03551 | 15.86779 | 29326 ft | 404 kts | 315° |
| 2026-05-03 20:58 | 42.05444 | 15.83969 | 29635 ft | 406 kts | 315° |
| 2026-05-03 20:58 | 42.07341 | 15.81149 | 29940 ft | 407 kts | 315° |
| 2026-05-03 20:58 | 42.09246 | 15.78321 | 30232 ft | 408 kts | 315° |
| 2026-05-03 20:59 | 42.11155 | 15.75487 | 30466 ft | 409 kts | 315° |
| 2026-05-03 20:59 | 42.13067 | 15.72641 | 30698 ft | 411 kts | 315° |
| 2026-05-03 20:59 | 42.14986 | 15.69780 | 30921 ft | 412 kts | 314° |
| 2026-05-03 20:59 | 42.16907 | 15.66912 | 31124 ft | 413 kts | 314° |
| 2026-05-03 21:00 | 42.18832 | 15.64033 | 31346 ft | 413 kts | 314° |
| 2026-05-03 21:00 | 42.19454 | 15.63103 | 31447 ft | 412 kts | 314° |
| 2026-05-03 21:00 | 42.22663 | 15.58300 | 31978 ft | 410 kts | 314° |
| 2026-05-03 21:00 | 42.24568 | 15.55445 | 32307 ft | 408 kts | 314° |
| 2026-05-03 21:01 | 42.26464 | 15.52601 | 32629 ft | 407 kts | 314° |
| 2026-05-03 21:01 | 42.27716 | 15.50724 | 32841 ft | 406 kts | 314° |
| 2026-05-03 21:02 | 42.37106 | 15.40634 | 34192 ft | 397 kts | 326° |
| 2026-05-03 21:02 | 42.39379 | 15.38519 | 34460 ft | 396 kts | 326° |
| 2026-05-03 21:02 | 42.41650 | 15.36402 | 34644 ft | 397 kts | 326° |
| 2026-05-03 21:03 | 42.43924 | 15.34275 | 34837 ft | 397 kts | 326° |
| 2026-05-03 21:03 | 42.46199 | 15.32144 | 35049 ft | 397 kts | 326° |
| 2026-05-03 21:03 | 42.48471 | 15.30017 | 35261 ft | 397 kts | 326° |
| 2026-05-03 21:03 | 42.50710 | 15.27918 | 35454 ft | 396 kts | 326° |
| 2026-05-03 21:04 | 42.52972 | 15.25799 | 35708 ft | 395 kts | 326° |
| 2026-05-03 21:04 | 42.55259 | 15.23657 | 35921 ft | 394 kts | 326° |
| 2026-05-03 21:04 | 42.57513 | 15.21545 | 36082 ft | 394 kts | 326° |
| 2026-05-03 21:04 | 42.59733 | 15.19463 | 36122 ft | 392 kts | 326° |
| 2026-05-03 21:05 | 42.64207 | 15.15256 | 36125 ft | 391 kts | 326° |
| 2026-05-03 21:05 | 42.68685 | 15.11032 | 36125 ft | 392 kts | 326° |
| 2026-05-03 21:06 | 42.73158 | 15.06800 | 36125 ft | 392 kts | 326° |
| 2026-05-03 21:06 | 42.77631 | 15.02572 | 36125 ft | 392 kts | 326° |
| 2026-05-03 21:07 | 42.82106 | 14.98332 | 36127 ft | 392 kts | 326° |
| 2026-05-03 21:07 | 42.86578 | 14.94083 | 36130 ft | 392 kts | 326° |
| 2026-05-03 21:08 | 42.91058 | 14.89825 | 36112 ft | 392 kts | 326° |
| 2026-05-03 21:08 | 42.95534 | 14.85562 | 36119 ft | 392 kts | 326° |
| 2026-05-03 21:09 | 42.99280 | 14.81980 | 36122 ft | 392 kts | 326° |
| 2026-05-03 21:09 | 43.03748 | 14.77707 | 36123 ft | 392 kts | 326° |
| 2026-05-03 21:10 | 43.08214 | 14.73423 | 36136 ft | 392 kts | 325° |
| 2026-05-03 21:10 | 43.12680 | 14.69131 | 36130 ft | 392 kts | 325° |
| 2026-05-03 21:11 | 43.17123 | 14.64867 | 36125 ft | 393 kts | 326° |
| 2026-05-03 21:11 | 43.21594 | 14.60571 | 36124 ft | 393 kts | 325° |
| 2026-05-03 21:12 | 43.26060 | 14.56261 | 36122 ft | 393 kts | 325° |
| 2026-05-03 21:12 | 43.30526 | 14.51945 | 36126 ft | 393 kts | 325° |
| 2026-05-03 21:13 | 43.34995 | 14.47624 | 36121 ft | 393 kts | 325° |
| 2026-05-03 21:13 | 43.39462 | 14.43287 | 36117 ft | 393 kts | 325° |
| 2026-05-03 21:14 | 43.43926 | 14.38938 | 36118 ft | 393 kts | 325° |
| 2026-05-03 21:14 | 43.48394 | 14.34588 | 36118 ft | 393 kts | 325° |
| 2026-05-03 21:15 | 43.52859 | 14.30231 | 36123 ft | 393 kts | 325° |
| 2026-05-03 21:15 | 43.57327 | 14.25864 | 36116 ft | 394 kts | 325° |
| 2026-05-03 21:16 | 43.61796 | 14.21489 | 36096 ft | 394 kts | 325° |
| 2026-05-03 21:16 | 43.66271 | 14.17103 | 36097 ft | 395 kts | 325° |
| 2026-05-03 21:17 | 43.69995 | 14.13442 | 36098 ft | 395 kts | 325° |
| 2026-05-03 21:17 | 43.75229 | 14.08284 | 36111 ft | 396 kts | 325° |
| 2026-05-03 21:18 | 43.79715 | 14.03862 | 36113 ft | 396 kts | 324° |
| 2026-05-03 21:18 | 43.84197 | 13.99427 | 36110 ft | 396 kts | 324° |
| 2026-05-03 21:19 | 43.88679 | 13.94984 | 36107 ft | 396 kts | 324° |
| 2026-05-03 21:19 | 43.93156 | 13.90537 | 36110 ft | 396 kts | 324° |
| 2026-05-03 21:20 | 43.97639 | 13.86082 | 36111 ft | 396 kts | 324° |
| 2026-05-03 21:20 | 44.02125 | 13.81627 | 36092 ft | 397 kts | 324° |
| 2026-05-03 21:21 | 44.06621 | 13.77150 | 36093 ft | 398 kts | 324° |
| 2026-05-03 21:21 | 44.11114 | 13.72652 | 36095 ft | 398 kts | 324° |
| 2026-05-03 21:22 | 44.15613 | 13.68134 | 36098 ft | 399 kts | 324° |
| 2026-05-03 21:22 | 44.20115 | 13.63619 | 36108 ft | 399 kts | 324° |
| 2026-05-03 21:23 | 44.24620 | 13.59090 | 36105 ft | 399 kts | 324° |
| 2026-05-03 21:23 | 44.29130 | 13.54560 | 36104 ft | 399 kts | 324° |
| 2026-05-03 21:24 | 44.33640 | 13.50010 | 36093 ft | 400 kts | 323° |
| 2026-05-03 21:24 | 44.38153 | 13.45432 | 36094 ft | 401 kts | 323° |
| 2026-05-03 21:25 | 44.42676 | 13.40844 | 36101 ft | 402 kts | 323° |
| 2026-05-03 21:25 | 44.47205 | 13.36244 | 36102 ft | 402 kts | 323° |
| 2026-05-03 21:26 | 44.51729 | 13.31638 | 36102 ft | 402 kts | 323° |
| 2026-05-03 21:26 | 44.56253 | 13.27020 | 36099 ft | 402 kts | 323° |
| 2026-05-03 21:27 | 44.60785 | 13.22393 | 36091 ft | 403 kts | 323° |
| 2026-05-03 21:27 | 44.65327 | 13.17753 | 36097 ft | 404 kts | 323° |
| 2026-05-03 21:28 | 44.69874 | 13.13094 | 36099 ft | 405 kts | 323° |
| 2026-05-03 21:28 | 44.74420 | 13.08423 | 36098 ft | 405 kts | 323° |
| 2026-05-03 21:29 | 44.78966 | 13.03740 | 36099 ft | 405 kts | 323° |
| 2026-05-03 21:29 | 44.83485 | 12.99081 | 36090 ft | 406 kts | 322° |
| 2026-05-03 21:30 | 44.88040 | 12.94377 | 36099 ft | 406 kts | 322° |
| 2026-05-03 21:30 | 44.92626 | 12.89627 | 36093 ft | 407 kts | 322° |
| 2026-05-03 21:31 | 44.97152 | 12.84928 | 36094 ft | 407 kts | 322° |
| 2026-05-03 21:31 | 45.01733 | 12.80226 | 36095 ft | 408 kts | 327° |
| 2026-05-03 21:32 | 45.06737 | 12.76319 | 36096 ft | 408 kts | 329° |
| 2026-05-03 21:32 | 45.11733 | 12.72471 | 36076 ft | 409 kts | 329° |
| 2026-05-03 21:33 | 45.16734 | 12.68604 | 36075 ft | 410 kts | 329° |
| 2026-05-03 21:33 | 45.21715 | 12.64754 | 36085 ft | 411 kts | 329° |
| 2026-05-03 21:34 | 45.26760 | 12.60837 | 36087 ft | 411 kts | 329° |
| 2026-05-03 21:34 | 45.31774 | 12.56928 | 36087 ft | 411 kts | 329° |
| 2026-05-03 21:35 | 45.36790 | 12.53027 | 36097 ft | 411 kts | 329° |
| 2026-05-03 21:35 | 45.41776 | 12.49142 | 36105 ft | 411 kts | 328° |
| 2026-05-03 21:36 | 45.46834 | 12.45188 | 36106 ft | 412 kts | 328° |
| 2026-05-03 21:36 | 45.51832 | 12.41275 | 36100 ft | 413 kts | 328° |
| 2026-05-03 21:37 | 45.56864 | 12.37326 | 36103 ft | 413 kts | 328° |
| 2026-05-03 21:37 | 45.61905 | 12.33368 | 36105 ft | 413 kts | 328° |
| 2026-05-03 21:38 | 45.66972 | 12.29372 | 36108 ft | 413 kts | 328° |
| 2026-05-03 21:38 | 45.71973 | 12.25417 | 36107 ft | 414 kts | 328° |
| 2026-05-03 21:39 | 45.77044 | 12.21396 | 36104 ft | 414 kts | 328° |
| 2026-05-03 21:39 | 45.82093 | 12.17382 | 36099 ft | 415 kts | 328° |
| 2026-05-03 21:40 | 45.87154 | 12.13362 | 36101 ft | 416 kts | 328° |
| 2026-05-03 21:40 | 45.92217 | 12.09332 | 36099 ft | 416 kts | 328° |
| 2026-05-03 21:41 | 45.97283 | 12.05279 | 36111 ft | 417 kts | 328° |
| 2026-05-03 21:41 | 46.02357 | 12.01220 | 36106 ft | 418 kts | 328° |
| 2026-05-03 21:42 | 46.07408 | 11.97177 | 36127 ft | 418 kts | 327° |
| 2026-05-03 21:42 | 46.12533 | 11.93054 | 36112 ft | 420 kts | 327° |
| 2026-05-03 21:43 | 46.17602 | 11.88974 | 36105 ft | 421 kts | 327° |
| 2026-05-03 21:43 | 46.22744 | 11.84823 | 36105 ft | 421 kts | 327° |
| 2026-05-03 21:44 | 46.27820 | 11.80712 | 36103 ft | 421 kts | 327° |
| 2026-05-03 21:44 | 46.32934 | 11.76573 | 36118 ft | 421 kts | 327° |
| 2026-05-03 21:45 | 46.38048 | 11.72427 | 36121 ft | 422 kts | 329° |
| 2026-05-03 21:45 | 46.43477 | 11.69078 | 36094 ft | 425 kts | 335° |
| 2026-05-03 21:46 | 46.48993 | 11.65935 | 36087 ft | 427 kts | 335° |
| 2026-05-03 21:46 | 46.54521 | 11.62784 | 36088 ft | 427 kts | 335° |
| 2026-05-03 21:47 | 46.60052 | 11.59619 | 36093 ft | 427 kts | 335° |
| 2026-05-03 21:47 | 46.65582 | 11.56433 | 36095 ft | 428 kts | 335° |
| 2026-05-03 21:48 | 46.71118 | 11.53247 | 36098 ft | 428 kts | 335° |
| 2026-05-03 21:48 | 46.76655 | 11.50066 | 36083 ft | 428 kts | 336° |
| 2026-05-03 21:49 | 46.82198 | 11.46861 | 36106 ft | 429 kts | 335° |
| 2026-05-03 21:49 | 46.87750 | 11.43632 | 36079 ft | 430 kts | 335° |
| 2026-05-03 21:50 | 46.93317 | 11.40391 | 36064 ft | 431 kts | 335° |
| 2026-05-03 21:50 | 46.99144 | 11.38170 | 36045 ft | 438 kts | 352° |
| 2026-05-03 21:51 | 47.04223 | 11.38289 | 36064 ft | 441 kts | 2° |
| 2026-05-03 21:51 | 47.10354 | 11.38916 | 36050 ft | 442 kts | 1° |
| 2026-05-03 21:52 | 47.16500 | 11.39538 | 36013 ft | 442 kts | 1° |
| 2026-05-03 21:52 | 47.22648 | 11.40155 | 36013 ft | 443 kts | 1° |
| 2026-05-03 21:53 | 47.28802 | 11.40423 | 36016 ft | 442 kts | 358° |
| 2026-05-03 21:53 | 47.34962 | 11.40313 | 36020 ft | 443 kts | 356° |
| 2026-05-03 21:54 | 47.41126 | 11.40202 | 36019 ft | 443 kts | 357° |
| 2026-05-03 21:54 | 47.47296 | 11.40127 | 36023 ft | 443 kts | 357° |
| 2026-05-03 21:55 | 47.53465 | 11.40067 | 36014 ft | 444 kts | 357° |
| 2026-05-03 21:55 | 47.59643 | 11.40005 | 36013 ft | 444 kts | 357° |
| 2026-05-03 21:56 | 47.65809 | 11.39722 | 36027 ft | 443 kts | 353° |
| 2026-05-03 21:56 | 47.71948 | 11.38854 | 36018 ft | 443 kts | 351° |
| 2026-05-03 21:57 | 47.78083 | 11.37844 | 36009 ft | 444 kts | 351° |
| 2026-05-03 21:57 | 47.84236 | 11.36942 | 36019 ft | 445 kts | 352° |
| 2026-05-03 21:58 | 47.90413 | 11.36250 | 36029 ft | 446 kts | 354° |
| 2026-05-03 21:58 | 47.96617 | 11.35804 | 36025 ft | 447 kts | 354° |
| 2026-05-03 21:59 | 48.02826 | 11.35354 | 36026 ft | 447 kts | 354° |
| 2026-05-03 21:59 | 48.09029 | 11.34749 | 36028 ft | 446 kts | 352° |
| 2026-05-03 22:00 | 48.15178 | 11.33592 | 36031 ft | 445 kts | 348° |
| 2026-05-03 22:00 | 48.21295 | 11.32135 | 35853 ft | 444 kts | 343° |
| 2026-05-03 22:01 | 48.24226 | 11.30763 | 35598 ft | 440 kts | 334° |
| 2026-05-03 22:01 | 48.26960 | 11.28765 | 35297 ft | 434 kts | 326° |
| 2026-05-03 22:01 | 48.29418 | 11.26217 | 34785 ft | 427 kts | 316° |
| 2026-05-03 22:01 | 48.31550 | 11.23174 | 34281 ft | 421 kts | 310° |
| 2026-05-03 22:02 | 48.33579 | 11.20016 | 33745 ft | 419 kts | 310° |
| 2026-05-03 22:02 | 48.35598 | 11.16887 | 33233 ft | 415 kts | 310° |
| 2026-05-03 22:02 | 48.37601 | 11.13786 | 32744 ft | 412 kts | 310° |
| 2026-05-03 22:02 | 48.39592 | 11.10702 | 32253 ft | 409 kts | 310° |
| 2026-05-03 22:03 | 48.41562 | 11.07640 | 31776 ft | 406 kts | 310° |
| 2026-05-03 22:03 | 48.43514 | 11.04596 | 31292 ft | 403 kts | 310° |
| 2026-05-03 22:03 | 48.45482 | 11.01528 | 30812 ft | 400 kts | 310° |
| 2026-05-03 22:03 | 48.47410 | 10.98523 | 30340 ft | 398 kts | 310° |
| 2026-05-03 22:04 | 48.49328 | 10.95524 | 29819 ft | 396 kts | 310° |
| 2026-05-03 22:04 | 48.51201 | 10.92572 | 29346 ft | 393 kts | 310° |
| 2026-05-03 22:04 | 48.53067 | 10.89595 | 28891 ft | 389 kts | 310° |
| 2026-05-03 22:04 | 48.54934 | 10.86597 | 28445 ft | 385 kts | 309° |
| 2026-05-03 22:05 | 48.56760 | 10.83654 | 27993 ft | 382 kts | 309° |
| 2026-05-03 22:05 | 48.58545 | 10.80779 | 27566 ft | 379 kts | 309° |
| 2026-05-03 22:05 | 48.60347 | 10.77890 | 27151 ft | 376 kts | 310° |
| 2026-05-03 22:05 | 48.62140 | 10.75037 | 26734 ft | 373 kts | 310° |
| 2026-05-03 22:06 | 48.63921 | 10.72217 | 26321 ft | 370 kts | 310° |
| 2026-05-03 22:06 | 48.65694 | 10.69418 | 25897 ft | 367 kts | 310° |
| 2026-05-03 22:06 | 48.67453 | 10.66639 | 25463 ft | 365 kts | 310° |
| 2026-05-03 22:06 | 48.69199 | 10.63874 | 25008 ft | 363 kts | 310° |
| 2026-05-03 22:07 | 48.70800 | 10.60958 | 24565 ft | 358 kts | 300° |
| 2026-05-03 22:07 | 48.71926 | 10.57643 | 24112 ft | 352 kts | 287° |
| 2026-05-03 22:07 | 48.72552 | 10.54097 | 23663 ft | 347 kts | 276° |
| 2026-05-03 22:07 | 48.72670 | 10.50477 | 23169 ft | 343 kts | 264° |
| 2026-05-03 22:08 | 48.72403 | 10.46918 | 22739 ft | 339 kts | 261° |
| 2026-05-03 22:08 | 48.72113 | 10.43390 | 22297 ft | 336 kts | 261° |
| 2026-05-03 22:08 | 48.71826 | 10.39888 | 21858 ft | 334 kts | 261° |
| 2026-05-03 22:08 | 48.71541 | 10.36412 | 21431 ft | 332 kts | 261° |
| 2026-05-03 22:09 | 48.71254 | 10.32950 | 21022 ft | 330 kts | 261° |
| 2026-05-03 22:09 | 48.70970 | 10.29511 | 20611 ft | 329 kts | 261° |
| 2026-05-03 22:09 | 48.70686 | 10.26081 | 20195 ft | 328 kts | 261° |
| 2026-05-03 22:10 | 48.70114 | 10.19261 | 19365 ft | 326 kts | 261° |
| 2026-05-03 22:10 | 48.69828 | 10.15863 | 18961 ft | 325 kts | 261° |
| 2026-05-03 22:10 | 48.69539 | 10.12471 | 18555 ft | 325 kts | 261° |
| 2026-05-03 22:10 | 48.69249 | 10.09080 | 18085 ft | 325 kts | 261° |
| 2026-05-03 22:11 | 48.68971 | 10.05694 | 17664 ft | 324 kts | 262° |
| 2026-05-03 22:11 | 48.68773 | 10.02305 | 17243 ft | 322 kts | 264° |
| 2026-05-03 22:11 | 48.68625 | 9.98881 | 16836 ft | 321 kts | 264° |
| 2026-05-03 22:11 | 48.68500 | 9.95513 | 16426 ft | 320 kts | 264° |
| 2026-05-03 22:12 | 48.68376 | 9.92156 | 16024 ft | 319 kts | 264° |
| 2026-05-03 22:12 | 48.68242 | 9.88807 | 15619 ft | 318 kts | 264° |
| 2026-05-03 22:12 | 48.68098 | 9.85473 | 15218 ft | 317 kts | 263° |
| 2026-05-03 22:12 | 48.67945 | 9.82141 | 14814 ft | 317 kts | 263° |
| 2026-05-03 22:13 | 48.67789 | 9.78820 | 14416 ft | 316 kts | 263° |
| 2026-05-03 22:13 | 48.67630 | 9.75505 | 14018 ft | 316 kts | 263° |
| 2026-05-03 22:13 | 48.67608 | 9.72197 | 13626 ft | 314 kts | 275° |
| 2026-05-03 22:13 | 48.68224 | 9.69081 | 13203 ft | 305 kts | 288° |
| 2026-05-03 22:14 | 48.68999 | 9.66128 | 12636 ft | 299 kts | 288° |
| 2026-05-03 22:14 | 48.69761 | 9.63228 | 12130 ft | 291 kts | 287° |
| 2026-05-03 22:14 | 48.70494 | 9.60454 | 11770 ft | 281 kts | 287° |
| 2026-05-03 22:14 | 48.71268 | 9.57746 | 11183 ft | 282 kts | 297° |
| 2026-05-03 22:15 | 48.72629 | 9.55585 | 10627 ft | 290 kts | 322° |
| 2026-05-03 22:15 | 48.74499 | 9.54396 | 10012 ft | 297 kts | 349° |
| 2026-05-03 22:15 | 48.76556 | 9.54555 | 9392 ft | 298 kts | 17° |
| 2026-05-03 22:15 | 48.78376 | 9.55987 | 8786 ft | 295 kts | 37° |
| 2026-05-03 22:16 | 48.79712 | 9.58230 | 8204 ft | 287 kts | 65° |
| 2026-05-03 22:16 | 48.80239 | 9.61060 | 7626 ft | 276 kts | 93° |
| 2026-05-03 22:16 | 48.79863 | 9.63827 | 7007 ft | 265 kts | 121° |
| 2026-05-03 22:16 | 48.78703 | 9.65895 | 6385 ft | 256 kts | 150° |
| 2026-05-03 22:17 | 48.77060 | 9.66547 | 5921 ft | 240 kts | 191° |
| 2026-05-03 22:17 | 48.75644 | 9.65492 | 5794 ft | 224 kts | 230° |
| 2026-05-03 22:17 | 48.75095 | 9.63409 | 5659 ft | 213 kts | 272° |
| 2026-05-03 22:17 | 48.75422 | 9.61274 | 5541 ft | 204 kts | 282° |
| 2026-05-03 22:18 | 48.75641 | 9.59234 | 5450 ft | 189 kts | 267° |
| 2026-05-03 22:18 | 48.75491 | 9.57335 | 5313 ft | 175 kts | 257° |
| 2026-05-03 22:18 | 48.75223 | 9.55597 | 5223 ft | 162 kts | 254° |
| 2026-05-03 22:18 | 48.74939 | 9.53975 | 5103 ft | 159 kts | 253° |
| 2026-05-03 22:19 | 48.74645 | 9.52365 | 4920 ft | 159 kts | 253° |
| 2026-05-03 22:19 | 48.74349 | 9.50762 | 4730 ft | 158 kts | 253° |
| 2026-05-03 22:19 | 48.74053 | 9.49168 | 4522 ft | 157 kts | 253° |
| 2026-05-03 22:19 | 48.73756 | 9.47573 | 4314 ft | 158 kts | 253° |
| 2026-05-03 22:20 | 48.73458 | 9.45974 | 4098 ft | 158 kts | 253° |
| 2026-05-03 22:20 | 48.73158 | 9.44372 | 3889 ft | 158 kts | 253° |
| 2026-05-03 22:20 | 48.72859 | 9.42774 | 3681 ft | 158 kts | 253° |
| 2026-05-03 22:20 | 48.72560 | 9.41173 | 3477 ft | 159 kts | 254° |
| 2026-05-03 22:21 | 48.72259 | 9.39569 | 3263 ft | 158 kts | 254° |
| 2026-05-03 22:21 | 48.71960 | 9.37973 | 3048 ft | 157 kts | 254° |
| 2026-05-03 22:21 | 48.71672 | 9.36441 | 2839 ft | 146 kts | 253° |
| 2026-05-03 22:21 | 48.71397 | 9.34978 | 2651 ft | 142 kts | 254° |
| 2026-05-03 22:22 | 48.71129 | 9.33552 | 2479 ft | 140 kts | 254° |
| 2026-05-03 22:22 | 48.70863 | 9.32133 | 2285 ft | 140 kts | 254° |
| 2026-05-03 22:22 | 48.70597 | 9.30708 | 2082 ft | 141 kts | 254° |
| 2026-05-03 22:22 | 48.70326 | 9.29276 | 1880 ft | 142 kts | 253° |
| 2026-05-03 22:23 | 48.70042 | 9.27842 | 1713 ft | 143 kts | 253° |
| 2026-05-03 22:23 | 48.69765 | 9.26399 | 1526 ft | 143 kts | 255° |
| 2026-05-03 22:23 | 48.69507 | 9.24946 | 1317 ft | 142 kts | 255° |
| 2026-05-03 22:23 | 48.69243 | 9.23526 | 1215 ft | 132 kts | 253° |
| 2026-05-03 22:24 | 48.69031 | 9.22428 | 1253 ft | 86 kts | 254° |
| 2026-05-03 22:24 | 48.68888 | 9.21657 | 1266 ft | 68 kts | 255° |
| 2026-05-03 22:24 | 48.68819 | 9.21232 | 1275 ft | 24 kts | 267° |
| 2026-05-03 22:24 | 48.68825 | 9.21064 | 1274 ft | 11 kts | 279° |
| 2026-05-03 22:25 | 48.68837 | 9.20973 | 1276 ft | 7 kts | 283° |
| 2026-05-03 22:25 | 48.68849 | 9.20904 | 1279 ft | 9 kts | 284° |
| 2026-05-03 22:25 | 48.68862 | 9.20823 | 1281 ft | 10 kts | 284° |
| 2026-05-03 22:25 | 48.68876 | 9.20684 | 1282 ft | 15 kts | 260° |
| 2026-05-03 22:26 | 48.68844 | 9.20504 | 1286 ft | 21 kts | 255° |
| 2026-05-03 22:26 | 48.68800 | 9.20272 | 1285 ft | 24 kts | 254° |
| 2026-05-03 22:26 | 48.68764 | 9.20087 | 1285 ft | 14 kts | 254° |
| 2026-05-03 22:26 | 48.68784 | 9.19965 | 1287 ft | 16 kts | 316° |
| 2026-05-03 22:27 | 48.68862 | 9.19848 | 1285 ft | 14 kts | 315° |
| 2026-05-03 22:27 | 48.68870 | 9.19709 | 1287 ft | 14 kts | 256° |
| 2026-05-03 22:27 | 48.68857 | 9.19611 | 1285 ft | 8 kts | 287° |
| 2026-05-03 22:27 | 48.68893 | 9.19595 | 1285 ft | 5 kts | 345° |
| 2026-05-03 22:28 | 48.68916 | 9.19585 | 1286 ft | 1 kts | 343° |
| 2026-05-03 22:28 | 48.68922 | 9.19582 | 1285 ft | 1 kts | 343° |
| 2026-05-03 22:28 | 48.68925 | 9.19581 | 1285 ft | 0 kts | 344° |